createdAt,value
2018-10-09T01:19:29.759Z,48.59
2018-10-09T01:29:32.166Z,48.32
2018-10-09T01:39:34.514Z,47.83
2018-10-09T01:49:36.982Z,48.04
2018-10-09T01:59:39.316Z,48.16
2018-10-09T02:09:41.622Z,48.14
2018-10-09T02:19:44.143Z,48.37
2018-10-09T02:29:46.496Z,48.50
2018-10-09T02:39:48.806Z,47.99
2018-10-09T02:49:51.139Z,48.05
2018-10-09T02:59:57.691Z,48.46
2018-10-09T03:10:00.046Z,48.18
2018-10-09T03:20:02.415Z,48.44
2018-10-09T03:30:05.849Z,48.14
2018-10-09T03:40:08.231Z,48.60
2018-10-09T03:50:10.547Z,47.76
2018-10-09T04:00:12.867Z,48.40
2018-10-09T04:10:15.190Z,47.87
2018-10-09T04:20:17.515Z,48.23
2018-10-09T04:30:19.861Z,48.39
2018-10-09T04:40:22.551Z,47.96
2018-10-09T04:50:24.891Z,48.44
2018-10-09T05:00:27.197Z,48.26
2018-10-09T05:10:30.063Z,47.79
2018-10-09T05:20:32.446Z,47.70
2018-10-09T05:30:34.783Z,48.69
2018-10-09T05:40:37.091Z,47.56
2018-10-09T05:50:39.606Z,48.00
2018-10-09T06:00:41.945Z,48.25
2018-10-09T06:10:44.246Z,47.59
2018-10-09T06:20:46.578Z,47.61
2018-10-09T06:30:48.898Z,48.15
2018-10-09T06:40:51.214Z,47.94
2018-10-09T06:50:53.534Z,48.31
2018-10-09T07:00:56.679Z,48.06
2018-10-09T07:10:59.132Z,47.64
2018-10-09T07:21:01.504Z,50.84
2018-10-09T07:31:03.846Z,51.68
2018-10-09T07:41:06.216Z,56.79
2018-10-09T07:51:08.693Z,55.32
2018-10-09T08:01:11.015Z,53.13
2018-10-09T08:11:13.343Z,52.90
2018-10-09T08:21:15.671Z,52.88
2018-10-09T08:31:17.984Z,51.74
2018-10-09T08:41:20.326Z,51.56
2018-10-09T08:51:22.639Z,50.80
2018-10-09T09:01:25.163Z,50.96
2018-10-09T09:11:27.479Z,49.72
2018-10-09T09:21:30.207Z,50.32
2018-10-09T09:31:32.529Z,50.67
2018-10-09T09:41:34.834Z,49.02
2018-10-09T09:51:37.160Z,48.87
2018-10-09T10:01:41.127Z,49.18
2018-10-09T10:11:43.500Z,48.03
2018-10-09T10:21:45.967Z,47.46
2018-10-09T10:31:48.284Z,48.53
2018-10-09T10:41:50.627Z,47.46
2018-10-09T10:51:53.135Z,46.77
2018-10-09T11:01:55.552Z,46.37
2018-10-09T11:11:57.966Z,45.57
2018-10-09T11:22:00.293Z,45.95
2018-10-09T11:32:02.616Z,46.92
2018-10-09T11:42:04.986Z,47.43
2018-10-09T11:52:07.403Z,46.69
2018-10-09T12:02:09.748Z,47.08
2018-10-09T12:12:12.066Z,46.31
2018-10-09T12:22:14.384Z,47.99
2018-10-09T12:32:16.975Z,48.35
2018-10-09T12:42:19.451Z,57.43
2018-10-09T12:52:21.771Z,57.03
2018-10-09T13:02:24.110Z,56.08
2018-10-09T13:12:26.449Z,55.51
2018-10-09T13:22:29.250Z,55.18
2018-10-09T13:32:31.253Z,55.20
2018-10-09T13:42:33.590Z,55.11
2018-10-09T13:52:35.917Z,54.54
2018-10-09T14:02:38.397Z,55.09
2018-10-09T14:12:40.862Z,54.12
2018-10-09T14:22:43.266Z,54.04
2018-10-09T14:32:45.562Z,53.00
2018-10-09T14:42:47.877Z,53.25
2018-10-09T14:52:50.249Z,53.09
2018-10-09T15:02:52.538Z,52.68
2018-10-09T15:12:54.859Z,52.89
2018-10-09T15:22:57.196Z,52.58
2018-10-09T15:32:59.490Z,52.44
2018-10-09T15:43:01.827Z,51.53
2018-10-09T15:53:04.278Z,48.94
2018-10-09T16:03:07.495Z,49.13
2018-10-09T16:13:09.935Z,48.99
2018-10-09T16:23:12.325Z,48.58
2018-10-09T16:33:14.658Z,47.85
2018-10-09T16:43:16.973Z,48.11
2018-10-09T16:53:19.313Z,46.91
2018-10-09T17:03:21.627Z,46.92
2018-10-09T17:13:23.925Z,47.59
2018-10-09T17:23:26.238Z,47.02
2018-10-09T17:33:28.561Z,47.46
2018-10-09T17:43:31.414Z,49.02
2018-10-09T17:53:34.092Z,48.91
2018-10-09T18:03:36.368Z,49.37
2018-10-09T18:13:38.672Z,48.99
2018-10-09T18:23:40.985Z,48.62
2018-10-09T18:33:43.285Z,49.38
2018-10-09T18:43:45.595Z,49.66
2018-10-09T18:53:47.902Z,49.55
2018-10-09T19:03:50.231Z,49.49
2018-10-09T19:13:52.586Z,49.76
2018-10-09T19:23:54.965Z,49.84
2018-10-09T19:33:57.446Z,50.03
2018-10-09T19:43:59.742Z,49.56
2018-10-09T19:54:02.038Z,52.22
2018-10-09T20:04:04.382Z,50.08
2018-10-09T20:14:07.099Z,49.88
2018-10-09T20:24:09.730Z,51.13
2018-10-09T20:34:12.150Z,51.28
2018-10-09T20:44:14.551Z,52.29
2018-10-09T20:54:17.006Z,51.59
2018-10-09T21:04:19.353Z,51.65
2018-10-09T21:14:21.854Z,52.01
2018-10-09T21:24:24.178Z,51.42
2018-10-09T21:34:26.534Z,51.97
2018-10-09T21:44:29.475Z,51.41
2018-10-09T21:54:32.054Z,51.41
2018-10-09T22:04:34.587Z,51.37
2018-10-09T22:14:37.107Z,51.54
2018-10-09T22:24:39.864Z,51.58
2018-10-09T22:34:43.213Z,52.37
2018-10-09T22:44:46.583Z,51.65
2018-10-09T22:54:49.094Z,52.52
2018-10-09T23:04:51.470Z,51.90
2018-10-09T23:14:54.564Z,52.38
2018-10-09T23:24:57.314Z,52.21
2018-10-09T23:34:59.695Z,52.76
2018-10-09T23:45:02.674Z,52.56
2018-10-09T23:55:06.279Z,52.45
